<?xml version="1.0" encoding="UTF-8" standalone="no" ?>
<gpx xmlns="http://www.topografix.com/GPX/1/1" xmlns:xsi="http://www.w3.org/2001/XMLSchema-instance" xsi:schemaLocation="http://www.topografix.com/GPX/1/1 http://www.topografix.com/GPX/1/1/gpx.xsd" version="1.1" creator="VisuGPX - https://www.visugpx.com">
  <metadata>
    <name>MAXI FREP J4/FULL/75/1389</name>
  </metadata>
  <trk>
    <name><![CDATA[12860222-VERS dimanche 75 ]]></name>
    <extensions>
      <line xmlns="http://www.topografix.com/GPX/gpx_style/0/2">
        <color>0000FF</color>
        <width>4</width>
      </line>
    </extensions>
    <trkseg>
      <trkpt lat="44.47669" lon="1.54167">
        <ele>245</ele>
        <time>2021-04-14T12:18:40Z</time>
      </trkpt>
      <trkpt lat="44.47653" lon="1.54112">
        <ele>246</ele>
        <time>2021-04-14T12:18:50Z</time>
      </trkpt>
      <trkpt lat="44.47671" lon="1.53877">
        <ele>258</ele>
        <time>2021-04-14T12:19:29Z</time>
      </trkpt>
      <trkpt lat="44.47817" lon="1.53546">
        <ele>262</ele>
        <time>2021-04-14T12:20:34Z</time>
      </trkpt>
      <trkpt lat="44.47864" lon="1.53405">
        <ele>270</ele>
        <time>2021-04-14T12:21:00Z</time>
      </trkpt>
      <trkpt lat="44.47995" lon="1.53308">
        <ele>272</ele>
        <time>2021-04-14T12:21:35Z</time>
      </trkpt>
      <trkpt lat="44.48176" lon="1.53152">
        <ele>244</ele>
        <time>2021-04-14T12:22:24Z</time>
      </trkpt>
      <trkpt lat="44.48213" lon="1.53161">
        <ele>248</ele>
        <time>2021-04-14T12:22:33Z</time>
      </trkpt>
      <trkpt lat="44.48349" lon="1.53202">
        <ele>258</ele>
        <time>2021-04-14T12:23:06Z</time>
      </trkpt>
      <trkpt lat="44.48363" lon="1.53186">
        <ele>259</ele>
        <time>2021-04-14T12:23:10Z</time>
      </trkpt>
      <trkpt lat="44.4843" lon="1.52856">
        <ele>242</ele>
        <time>2021-04-14T12:24:07Z</time>
      </trkpt>
      <trkpt lat="44.48345" lon="1.52804">
        <ele>226</ele>
        <time>2021-04-14T12:24:29Z</time>
      </trkpt>
      <trkpt lat="44.4832" lon="1.52837">
        <ele>224</ele>
        <time>2021-04-14T12:24:37Z</time>
      </trkpt>
      <trkpt lat="44.48219" lon="1.52756">
        <ele>201</ele>
        <time>2021-04-14T12:25:04Z</time>
      </trkpt>
      <trkpt lat="44.48198" lon="1.52865">
        <ele>203</ele>
        <time>2021-04-14T12:25:23Z</time>
      </trkpt>
      <trkpt lat="44.48136" lon="1.52753">
        <ele>192</ele>
        <time>2021-04-14T12:25:46Z</time>
      </trkpt>
      <trkpt lat="44.48145" lon="1.52684">
        <ele>187</ele>
        <time>2021-04-14T12:25:58Z</time>
      </trkpt>
      <trkpt lat="44.48149" lon="1.52555">
        <ele>182</ele>
        <time>2021-04-14T12:26:19Z</time>
      </trkpt>
      <trkpt lat="44.48143" lon="1.52446">
        <ele>177</ele>
        <time>2021-04-14T12:26:38Z</time>
      </trkpt>
      <trkpt lat="44.48151" lon="1.523">
        <ele>166</ele>
        <time>2021-04-14T12:27:02Z</time>
      </trkpt>
      <trkpt lat="44.4814" lon="1.52234">
        <ele>162</ele>
        <time>2021-04-14T12:27:13Z</time>
      </trkpt>
      <trkpt lat="44.48105" lon="1.52186">
        <ele>152</ele>
        <time>2021-04-14T12:27:25Z</time>
      </trkpt>
      <trkpt lat="44.48108" lon="1.52099">
        <ele>149</ele>
        <time>2021-04-14T12:27:39Z</time>
      </trkpt>
      <trkpt lat="44.48154" lon="1.51995">
        <ele>152</ele>
        <time>2021-04-14T12:28:00Z</time>
      </trkpt>
      <trkpt lat="44.48212" lon="1.51951">
        <ele>152</ele>
        <time>2021-04-14T12:28:15Z</time>
      </trkpt>
      <trkpt lat="44.48252" lon="1.51931">
        <ele>150</ele>
        <time>2021-04-14T12:28:25Z</time>
      </trkpt>
      <trkpt lat="44.48374" lon="1.5177">
        <ele>160</ele>
        <time>2021-04-14T12:29:04Z</time>
      </trkpt>
      <trkpt lat="44.48405" lon="1.51566">
        <ele>154</ele>
        <time>2021-04-14T12:29:39Z</time>
      </trkpt>
      <trkpt lat="44.4858" lon="1.51484">
        <ele>163</ele>
        <time>2021-04-14T12:30:22Z</time>
      </trkpt>
      <trkpt lat="44.48686" lon="1.5136">
        <ele>161</ele>
        <time>2021-04-14T12:30:54Z</time>
      </trkpt>
      <trkpt lat="44.48762" lon="1.51323">
        <ele>161</ele>
        <time>2021-04-14T12:31:13Z</time>
      </trkpt>
      <trkpt lat="44.48886" lon="1.51306">
        <ele>165</ele>
        <time>2021-04-14T12:31:42Z</time>
      </trkpt>
      <trkpt lat="44.48991" lon="1.51311">
        <ele>166</ele>
        <time>2021-04-14T12:32:07Z</time>
      </trkpt>
      <trkpt lat="44.49038" lon="1.51371">
        <ele>175</ele>
        <time>2021-04-14T12:32:21Z</time>
      </trkpt>
      <trkpt lat="44.49129" lon="1.5141">
        <ele>177</ele>
        <time>2021-04-14T12:32:44Z</time>
      </trkpt>
      <trkpt lat="44.49268" lon="1.51401">
        <ele>177</ele>
        <time>2021-04-14T12:33:16Z</time>
      </trkpt>
      <trkpt lat="44.49383" lon="1.5148">
        <ele>181</ele>
        <time>2021-04-14T12:33:46Z</time>
      </trkpt>
      <trkpt lat="44.49436" lon="1.51487">
        <ele>179</ele>
        <time>2021-04-14T12:33:59Z</time>
      </trkpt>
      <trkpt lat="44.49487" lon="1.51489">
        <ele>181</ele>
        <time>2021-04-14T12:34:10Z</time>
      </trkpt>
      <trkpt lat="44.49576" lon="1.51455">
        <ele>182</ele>
        <time>2021-04-14T12:34:32Z</time>
      </trkpt>
      <trkpt lat="44.49651" lon="1.51395">
        <ele>179</ele>
        <time>2021-04-14T12:34:52Z</time>
      </trkpt>
      <trkpt lat="44.49771" lon="1.51407">
        <ele>187</ele>
        <time>2021-04-14T12:35:20Z</time>
      </trkpt>
      <trkpt lat="44.49866" lon="1.51354">
        <ele>186</ele>
        <time>2021-04-14T12:35:44Z</time>
      </trkpt>
      <trkpt lat="44.49951" lon="1.51347">
        <ele>189</ele>
        <time>2021-04-14T12:36:04Z</time>
      </trkpt>
      <trkpt lat="44.50041" lon="1.51259">
        <ele>190</ele>
        <time>2021-04-14T12:36:30Z</time>
      </trkpt>
      <trkpt lat="44.50146" lon="1.51182">
        <ele>185</ele>
        <time>2021-04-14T12:36:57Z</time>
      </trkpt>
      <trkpt lat="44.50188" lon="1.51195">
        <ele>188</ele>
        <time>2021-04-14T12:37:07Z</time>
      </trkpt>
      <trkpt lat="44.50339" lon="1.51182">
        <ele>190</ele>
        <time>2021-04-14T12:37:43Z</time>
      </trkpt>
      <trkpt lat="44.50394" lon="1.51201">
        <ele>193</ele>
        <time>2021-04-14T12:37:56Z</time>
      </trkpt>
      <trkpt lat="44.50463" lon="1.51296">
        <ele>200</ele>
        <time>2021-04-14T12:38:18Z</time>
      </trkpt>
      <trkpt lat="44.50552" lon="1.51354">
        <ele>199</ele>
        <time>2021-04-14T12:38:41Z</time>
      </trkpt>
      <trkpt lat="44.50644" lon="1.51543">
        <ele>209</ele>
        <time>2021-04-14T12:39:19Z</time>
      </trkpt>
      <trkpt lat="44.50754" lon="1.51624">
        <ele>205</ele>
        <time>2021-04-14T12:39:49Z</time>
      </trkpt>
      <trkpt lat="44.50922" lon="1.51802">
        <ele>211</ele>
        <time>2021-04-14T12:40:38Z</time>
      </trkpt>
      <trkpt lat="44.5106" lon="1.51918">
        <ele>215</ele>
        <time>2021-04-14T12:41:15Z</time>
      </trkpt>
      <trkpt lat="44.51147" lon="1.51983">
        <ele>217</ele>
        <time>2021-04-14T12:41:38Z</time>
      </trkpt>
      <trkpt lat="44.51228" lon="1.52008">
        <ele>214</ele>
        <time>2021-04-14T12:41:58Z</time>
      </trkpt>
      <trkpt lat="44.51337" lon="1.51989">
        <ele>215</ele>
        <time>2021-04-14T12:42:23Z</time>
      </trkpt>
      <trkpt lat="44.51455" lon="1.52017">
        <ele>223</ele>
        <time>2021-04-14T12:42:51Z</time>
      </trkpt>
      <trkpt lat="44.5147" lon="1.51976">
        <ele>224</ele>
        <time>2021-04-14T12:42:59Z</time>
      </trkpt>
      <trkpt lat="44.51594" lon="1.51937">
        <ele>224</ele>
        <time>2021-04-14T12:43:29Z</time>
      </trkpt>
      <trkpt lat="44.51681" lon="1.51916">
        <ele>220</ele>
        <time>2021-04-14T12:43:49Z</time>
      </trkpt>
      <trkpt lat="44.51802" lon="1.51817">
        <ele>232</ele>
        <time>2021-04-14T12:44:22Z</time>
      </trkpt>
      <trkpt lat="44.51934" lon="1.51832">
        <ele>241</ele>
        <time>2021-04-14T12:44:53Z</time>
      </trkpt>
      <trkpt lat="44.52053" lon="1.51747">
        <ele>248</ele>
        <time>2021-04-14T12:45:24Z</time>
      </trkpt>
      <trkpt lat="44.52194" lon="1.51714">
        <ele>260</ele>
        <time>2021-04-14T12:45:57Z</time>
      </trkpt>
      <trkpt lat="44.52281" lon="1.51635">
        <ele>261</ele>
        <time>2021-04-14T12:46:22Z</time>
      </trkpt>
      <trkpt lat="44.52394" lon="1.51547">
        <ele>273</ele>
        <time>2021-04-14T12:46:52Z</time>
      </trkpt>
      <trkpt lat="44.52468" lon="1.51575">
        <ele>275</ele>
        <time>2021-04-14T12:47:10Z</time>
      </trkpt>
      <trkpt lat="44.52532" lon="1.51689">
        <ele>291</ele>
        <time>2021-04-14T12:47:34Z</time>
      </trkpt>
      <trkpt lat="44.52446" lon="1.51678">
        <ele>289</ele>
        <time>2021-04-14T12:47:54Z</time>
      </trkpt>
      <trkpt lat="44.52408" lon="1.51738">
        <ele>301</ele>
        <time>2021-04-14T12:48:07Z</time>
      </trkpt>
      <trkpt lat="44.52453" lon="1.5177">
        <ele>310</ele>
        <time>2021-04-14T12:48:19Z</time>
      </trkpt>
      <trkpt lat="44.52491" lon="1.5178">
        <ele>313</ele>
        <time>2021-04-14T12:48:28Z</time>
      </trkpt>
      <trkpt lat="44.52534" lon="1.51956">
        <ele>339</ele>
        <time>2021-04-14T12:48:59Z</time>
      </trkpt>
      <trkpt lat="44.52731" lon="1.51853">
        <ele>339</ele>
        <time>2021-04-14T12:49:48Z</time>
      </trkpt>
      <trkpt lat="44.52779" lon="1.51856">
        <ele>341</ele>
        <time>2021-04-14T12:50:00Z</time>
      </trkpt>
      <trkpt lat="44.52837" lon="1.51856">
        <ele>344</ele>
        <time>2021-04-14T12:50:13Z</time>
      </trkpt>
      <trkpt lat="44.5292" lon="1.51944">
        <ele>337</ele>
        <time>2021-04-14T12:50:37Z</time>
      </trkpt>
      <trkpt lat="44.52947" lon="1.5236">
        <ele>333</ele>
        <time>2021-04-14T12:51:47Z</time>
      </trkpt>
      <trkpt lat="44.52926" lon="1.52545">
        <ele>338</ele>
        <time>2021-04-14T12:52:18Z</time>
      </trkpt>
      <trkpt lat="44.52971" lon="1.52566">
        <ele>340</ele>
        <time>2021-04-14T12:52:29Z</time>
      </trkpt>
      <trkpt lat="44.52983" lon="1.52736">
        <ele>337</ele>
        <time>2021-04-14T12:52:58Z</time>
      </trkpt>
      <trkpt lat="44.53005" lon="1.52883">
        <ele>326</ele>
        <time>2021-04-14T12:53:23Z</time>
      </trkpt>
      <trkpt lat="44.52961" lon="1.53167">
        <ele>315</ele>
        <time>2021-04-14T12:54:11Z</time>
      </trkpt>
      <trkpt lat="44.52919" lon="1.53296">
        <ele>310</ele>
        <time>2021-04-14T12:54:35Z</time>
      </trkpt>
      <trkpt lat="44.52909" lon="1.53455">
        <ele>301</ele>
        <time>2021-04-14T12:55:01Z</time>
      </trkpt>
      <trkpt lat="44.52897" lon="1.53529">
        <ele>297</ele>
        <time>2021-04-14T12:55:14Z</time>
      </trkpt>
      <trkpt lat="44.52872" lon="1.53578">
        <ele>296</ele>
        <time>2021-04-14T12:55:24Z</time>
      </trkpt>
      <trkpt lat="44.5307" lon="1.54063">
        <ele>329</ele>
        <time>2021-04-14T12:56:57Z</time>
      </trkpt>
      <trkpt lat="44.53213" lon="1.5439">
        <ele>323</ele>
        <time>2021-04-14T12:58:01Z</time>
      </trkpt>
      <trkpt lat="44.53328" lon="1.5455">
        <ele>315</ele>
        <time>2021-04-14T12:58:39Z</time>
      </trkpt>
      <trkpt lat="44.53406" lon="1.54749">
        <ele>304</ele>
        <time>2021-04-14T12:59:16Z</time>
      </trkpt>
      <trkpt lat="44.53437" lon="1.55044">
        <ele>284</ele>
        <time>2021-04-14T13:00:06Z</time>
      </trkpt>
      <trkpt lat="44.5347" lon="1.55142">
        <ele>278</ele>
        <time>2021-04-14T13:00:24Z</time>
      </trkpt>
      <trkpt lat="44.53531" lon="1.55165">
        <ele>277</ele>
        <time>2021-04-14T13:00:39Z</time>
      </trkpt>
      <trkpt lat="44.53537" lon="1.55236">
        <ele>272</ele>
        <time>2021-04-14T13:00:51Z</time>
      </trkpt>
      <trkpt lat="44.53558" lon="1.55314">
        <ele>268</ele>
        <time>2021-04-14T13:01:05Z</time>
      </trkpt>
      <trkpt lat="44.53614" lon="1.55335">
        <ele>267</ele>
        <time>2021-04-14T13:01:18Z</time>
      </trkpt>
      <trkpt lat="44.53698" lon="1.55329">
        <ele>265</ele>
        <time>2021-04-14T13:01:38Z</time>
      </trkpt>
      <trkpt lat="44.53795" lon="1.55318">
        <ele>255</ele>
        <time>2021-04-14T13:02:00Z</time>
      </trkpt>
      <trkpt lat="44.53842" lon="1.55224">
        <ele>255</ele>
        <time>2021-04-14T13:02:20Z</time>
      </trkpt>
      <trkpt lat="44.53941" lon="1.55163">
        <ele>241</ele>
        <time>2021-04-14T13:02:45Z</time>
      </trkpt>
      <trkpt lat="44.54111" lon="1.55182">
        <ele>207</ele>
        <time>2021-04-14T13:03:25Z</time>
      </trkpt>
      <trkpt lat="44.54177" lon="1.55148">
        <ele>204</ele>
        <time>2021-04-14T13:03:41Z</time>
      </trkpt>
      <trkpt lat="44.54252" lon="1.55097">
        <ele>188</ele>
        <time>2021-04-14T13:04:01Z</time>
      </trkpt>
      <trkpt lat="44.54264" lon="1.55129">
        <ele>186</ele>
        <time>2021-04-14T13:04:07Z</time>
      </trkpt>
      <trkpt lat="44.54249" lon="1.54962">
        <ele>201</ele>
        <time>2021-04-14T13:04:35Z</time>
      </trkpt>
      <trkpt lat="44.54301" lon="1.54825">
        <ele>196</ele>
        <time>2021-04-14T13:05:00Z</time>
      </trkpt>
      <trkpt lat="44.54322" lon="1.54717">
        <ele>189</ele>
        <time>2021-04-14T13:05:19Z</time>
      </trkpt>
      <trkpt lat="44.54282" lon="1.54631">
        <ele>189</ele>
        <time>2021-04-14T13:05:36Z</time>
      </trkpt>
      <trkpt lat="44.54166" lon="1.54697">
        <ele>197</ele>
        <time>2021-04-14T13:06:05Z</time>
      </trkpt>
      <trkpt lat="44.54053" lon="1.54529">
        <ele>199</ele>
        <time>2021-04-14T13:06:44Z</time>
      </trkpt>
      <trkpt lat="44.54082" lon="1.5435">
        <ele>196</ele>
        <time>2021-04-14T13:07:14Z</time>
      </trkpt>
      <trkpt lat="44.54042" lon="1.54207">
        <ele>199</ele>
        <time>2021-04-14T13:07:40Z</time>
      </trkpt>
      <trkpt lat="44.54064" lon="1.54008">
        <ele>203</ele>
        <time>2021-04-14T13:08:13Z</time>
      </trkpt>
      <trkpt lat="44.54119" lon="1.5385">
        <ele>202</ele>
        <time>2021-04-14T13:08:43Z</time>
      </trkpt>
      <trkpt lat="44.54202" lon="1.5384">
        <ele>206</ele>
        <time>2021-04-14T13:09:02Z</time>
      </trkpt>
      <trkpt lat="44.54242" lon="1.53635">
        <ele>200</ele>
        <time>2021-04-14T13:09:38Z</time>
      </trkpt>
      <trkpt lat="44.54315" lon="1.53442">
        <ele>199</ele>
        <time>2021-04-14T13:10:14Z</time>
      </trkpt>
      <trkpt lat="44.54413" lon="1.5338">
        <ele>202</ele>
        <time>2021-04-14T13:10:39Z</time>
      </trkpt>
      <trkpt lat="44.54581" lon="1.53493">
        <ele>218</ele>
        <time>2021-04-14T13:11:23Z</time>
      </trkpt>
      <trkpt lat="44.54672" lon="1.53579">
        <ele>225</ele>
        <time>2021-04-14T13:11:48Z</time>
      </trkpt>
      <trkpt lat="44.54846" lon="1.53579">
        <ele>237</ele>
        <time>2021-04-14T13:12:29Z</time>
      </trkpt>
      <trkpt lat="44.54984" lon="1.53472">
        <ele>245</ele>
        <time>2021-04-14T13:13:06Z</time>
      </trkpt>
      <trkpt lat="44.55115" lon="1.53431">
        <ele>256</ele>
        <time>2021-04-14T13:13:37Z</time>
      </trkpt>
      <trkpt lat="44.55155" lon="1.53457">
        <ele>260</ele>
        <time>2021-04-14T13:13:47Z</time>
      </trkpt>
      <trkpt lat="44.55334" lon="1.5363">
        <ele>288</ele>
        <time>2021-04-14T13:14:38Z</time>
      </trkpt>
      <trkpt lat="44.55417" lon="1.53651">
        <ele>298</ele>
        <time>2021-04-14T13:14:58Z</time>
      </trkpt>
      <trkpt lat="44.55543" lon="1.53543">
        <ele>305</ele>
        <time>2021-04-14T13:15:32Z</time>
      </trkpt>
      <trkpt lat="44.55659" lon="1.53418">
        <ele>314</ele>
        <time>2021-04-14T13:16:06Z</time>
      </trkpt>
      <trkpt lat="44.55811" lon="1.53594">
        <ele>330</ele>
        <time>2021-04-14T13:16:52Z</time>
      </trkpt>
      <trkpt lat="44.55888" lon="1.53584">
        <ele>332</ele>
        <time>2021-04-14T13:17:10Z</time>
      </trkpt>
      <trkpt lat="44.5604" lon="1.5367">
        <ele>345</ele>
        <time>2021-04-14T13:17:49Z</time>
      </trkpt>
      <trkpt lat="44.56184" lon="1.53699">
        <ele>356</ele>
        <time>2021-04-14T13:18:23Z</time>
      </trkpt>
      <trkpt lat="44.56325" lon="1.53757">
        <ele>348</ele>
        <time>2021-04-14T13:18:57Z</time>
      </trkpt>
      <trkpt lat="44.56487" lon="1.53807">
        <ele>331</ele>
        <time>2021-04-14T13:19:36Z</time>
      </trkpt>
      <trkpt lat="44.56564" lon="1.5384">
        <ele>325</ele>
        <time>2021-04-14T13:19:55Z</time>
      </trkpt>
      <trkpt lat="44.56606" lon="1.53883">
        <ele>325</ele>
        <time>2021-04-14T13:20:07Z</time>
      </trkpt>
      <trkpt lat="44.56747" lon="1.53905">
        <ele>337</ele>
        <time>2021-04-14T13:20:40Z</time>
      </trkpt>
      <trkpt lat="44.56775" lon="1.5397">
        <ele>340</ele>
        <time>2021-04-14T13:20:52Z</time>
      </trkpt>
      <trkpt lat="44.56618" lon="1.54208">
        <ele>336</ele>
        <time>2021-04-14T13:21:46Z</time>
      </trkpt>
      <trkpt lat="44.56586" lon="1.54407">
        <ele>342</ele>
        <time>2021-04-14T13:22:20Z</time>
      </trkpt>
      <trkpt lat="44.566" lon="1.54646">
        <ele>331</ele>
        <time>2021-04-14T13:23:00Z</time>
      </trkpt>
      <trkpt lat="44.56617" lon="1.54859">
        <ele>331</ele>
        <time>2021-04-14T13:23:36Z</time>
      </trkpt>
      <trkpt lat="44.56645" lon="1.54937">
        <ele>318</ele>
        <time>2021-04-14T13:23:50Z</time>
      </trkpt>
      <trkpt lat="44.5666" lon="1.5501">
        <ele>303</ele>
        <time>2021-04-14T13:24:03Z</time>
      </trkpt>
      <trkpt lat="44.56658" lon="1.5508">
        <ele>285</ele>
        <time>2021-04-14T13:24:15Z</time>
      </trkpt>
      <trkpt lat="44.56732" lon="1.55156">
        <ele>262</ele>
        <time>2021-04-14T13:24:36Z</time>
      </trkpt>
      <trkpt lat="44.56706" lon="1.55192">
        <ele>249</ele>
        <time>2021-04-14T13:24:45Z</time>
      </trkpt>
      <trkpt lat="44.56437" lon="1.55147">
        <ele>235</ele>
        <time>2021-04-14T13:25:48Z</time>
      </trkpt>
      <trkpt lat="44.56271" lon="1.55156">
        <ele>231</ele>
        <time>2021-04-14T13:26:27Z</time>
      </trkpt>
      <trkpt lat="44.56148" lon="1.55177">
        <ele>219</ele>
        <time>2021-04-14T13:26:56Z</time>
      </trkpt>
      <trkpt lat="44.56202" lon="1.55468">
        <ele>212</ele>
        <time>2021-04-14T13:27:46Z</time>
      </trkpt>
      <trkpt lat="44.55676" lon="1.55572">
        <ele>209</ele>
        <time>2021-04-14T13:29:50Z</time>
      </trkpt>
      <trkpt lat="44.55516" lon="1.55775">
        <ele>208</ele>
        <time>2021-04-14T13:30:40Z</time>
      </trkpt>
      <trkpt lat="44.55486" lon="1.55899">
        <ele>209</ele>
        <time>2021-04-14T13:31:02Z</time>
      </trkpt>
      <trkpt lat="44.55544" lon="1.56006">
        <ele>227</ele>
        <time>2021-04-14T13:31:24Z</time>
      </trkpt>
      <trkpt lat="44.5549" lon="1.56069">
        <ele>227</ele>
        <time>2021-04-14T13:31:41Z</time>
      </trkpt>
      <trkpt lat="44.55462" lon="1.56169">
        <ele>249</ele>
        <time>2021-04-14T13:31:59Z</time>
      </trkpt>
      <trkpt lat="44.55382" lon="1.56215">
        <ele>246</ele>
        <time>2021-04-14T13:32:19Z</time>
      </trkpt>
      <trkpt lat="44.5535" lon="1.56251">
        <ele>248</ele>
        <time>2021-04-14T13:32:28Z</time>
      </trkpt>
      <trkpt lat="44.5532" lon="1.56358">
        <ele>248</ele>
        <time>2021-04-14T13:32:47Z</time>
      </trkpt>
      <trkpt lat="44.55322" lon="1.56503">
        <ele>254</ele>
        <time>2021-04-14T13:33:12Z</time>
      </trkpt>
      <trkpt lat="44.55348" lon="1.56564">
        <ele>257</ele>
        <time>2021-04-14T13:33:23Z</time>
      </trkpt>
      <trkpt lat="44.55413" lon="1.56658">
        <ele>256</ele>
        <time>2021-04-14T13:33:45Z</time>
      </trkpt>
      <trkpt lat="44.55456" lon="1.56725">
        <ele>259</ele>
        <time>2021-04-14T13:34:00Z</time>
      </trkpt>
      <trkpt lat="44.5554" lon="1.56901">
        <ele>276</ele>
        <time>2021-04-14T13:34:35Z</time>
      </trkpt>
      <trkpt lat="44.5559" lon="1.56977">
        <ele>286</ele>
        <time>2021-04-14T13:34:53Z</time>
      </trkpt>
      <trkpt lat="44.55663" lon="1.57053">
        <ele>293</ele>
        <time>2021-04-14T13:35:14Z</time>
      </trkpt>
      <trkpt lat="44.5567" lon="1.57086">
        <ele>297</ele>
        <time>2021-04-14T13:35:20Z</time>
      </trkpt>
      <trkpt lat="44.55679" lon="1.57165">
        <ele>302</ele>
        <time>2021-04-14T13:35:33Z</time>
      </trkpt>
      <trkpt lat="44.55754" lon="1.57335">
        <ele>307</ele>
        <time>2021-04-14T13:36:06Z</time>
      </trkpt>
      <trkpt lat="44.55655" lon="1.57732">
        <ele>283</ele>
        <time>2021-04-14T13:37:16Z</time>
      </trkpt>
      <trkpt lat="44.55668" lon="1.57814">
        <ele>280</ele>
        <time>2021-04-14T13:37:30Z</time>
      </trkpt>
      <trkpt lat="44.55666" lon="1.57896">
        <ele>282</ele>
        <time>2021-04-14T13:37:44Z</time>
      </trkpt>
      <trkpt lat="44.55439" lon="1.57914">
        <ele>281</ele>
        <time>2021-04-14T13:38:37Z</time>
      </trkpt>
      <trkpt lat="44.55311" lon="1.57917">
        <ele>278</ele>
        <time>2021-04-14T13:39:07Z</time>
      </trkpt>
      <trkpt lat="44.55317" lon="1.57957">
        <ele>284</ele>
        <time>2021-04-14T13:39:14Z</time>
      </trkpt>
      <trkpt lat="44.55415" lon="1.5803">
        <ele>297</ele>
        <time>2021-04-14T13:39:40Z</time>
      </trkpt>
      <trkpt lat="44.55532" lon="1.58136">
        <ele>296</ele>
        <time>2021-04-14T13:40:12Z</time>
      </trkpt>
      <trkpt lat="44.55603" lon="1.58172">
        <ele>297</ele>
        <time>2021-04-14T13:40:30Z</time>
      </trkpt>
      <trkpt lat="44.55484" lon="1.58394">
        <ele>277</ele>
        <time>2021-04-14T13:41:16Z</time>
      </trkpt>
      <trkpt lat="44.5548" lon="1.58482">
        <ele>277</ele>
        <time>2021-04-14T13:41:31Z</time>
      </trkpt>
      <trkpt lat="44.55324" lon="1.58524">
        <ele>274</ele>
        <time>2021-04-14T13:42:08Z</time>
      </trkpt>
      <trkpt lat="44.55326" lon="1.58694">
        <ele>283</ele>
        <time>2021-04-14T13:42:36Z</time>
      </trkpt>
      <trkpt lat="44.55263" lon="1.58907">
        <ele>294</ele>
        <time>2021-04-14T13:43:14Z</time>
      </trkpt>
      <trkpt lat="44.55214" lon="1.59028">
        <ele>297</ele>
        <time>2021-04-14T13:43:38Z</time>
      </trkpt>
      <trkpt lat="44.55144" lon="1.59149">
        <ele>300</ele>
        <time>2021-04-14T13:44:03Z</time>
      </trkpt>
      <trkpt lat="44.54993" lon="1.59265">
        <ele>305</ele>
        <time>2021-04-14T13:44:44Z</time>
      </trkpt>
      <trkpt lat="44.54954" lon="1.59373">
        <ele>310</ele>
        <time>2021-04-14T13:45:04Z</time>
      </trkpt>
      <trkpt lat="44.5497" lon="1.59436">
        <ele>308</ele>
        <time>2021-04-14T13:45:15Z</time>
      </trkpt>
      <trkpt lat="44.55065" lon="1.59562">
        <ele>308</ele>
        <time>2021-04-14T13:45:46Z</time>
      </trkpt>
      <trkpt lat="44.55014" lon="1.59765">
        <ele>300</ele>
        <time>2021-04-14T13:46:21Z</time>
      </trkpt>
      <trkpt lat="44.55006" lon="1.59864">
        <ele>295</ele>
        <time>2021-04-14T13:46:38Z</time>
      </trkpt>
      <trkpt lat="44.55041" lon="1.60011">
        <ele>292</ele>
        <time>2021-04-14T13:47:04Z</time>
      </trkpt>
      <trkpt lat="44.5508" lon="1.60193">
        <ele>278</ele>
        <time>2021-04-14T13:47:35Z</time>
      </trkpt>
      <trkpt lat="44.55062" lon="1.6031">
        <ele>279</ele>
        <time>2021-04-14T13:47:55Z</time>
      </trkpt>
      <trkpt lat="44.55032" lon="1.60435">
        <ele>272</ele>
        <time>2021-04-14T13:48:17Z</time>
      </trkpt>
      <trkpt lat="44.55055" lon="1.60493">
        <ele>273</ele>
        <time>2021-04-14T13:48:28Z</time>
      </trkpt>
      <trkpt lat="44.54853" lon="1.60455">
        <ele>267</ele>
        <time>2021-04-14T13:49:16Z</time>
      </trkpt>
      <trkpt lat="44.5479" lon="1.60453">
        <ele>263</ele>
        <time>2021-04-14T13:49:31Z</time>
      </trkpt>
      <trkpt lat="44.54755" lon="1.60514">
        <ele>259</ele>
        <time>2021-04-14T13:49:44Z</time>
      </trkpt>
      <trkpt lat="44.54719" lon="1.6064">
        <ele>262</ele>
        <time>2021-04-14T13:50:06Z</time>
      </trkpt>
      <trkpt lat="44.5466" lon="1.60724">
        <ele>258</ele>
        <time>2021-04-14T13:50:26Z</time>
      </trkpt>
      <trkpt lat="44.54572" lon="1.60745">
        <ele>251</ele>
        <time>2021-04-14T13:50:47Z</time>
      </trkpt>
      <trkpt lat="44.54514" lon="1.60805">
        <ele>253</ele>
        <time>2021-04-14T13:51:03Z</time>
      </trkpt>
      <trkpt lat="44.54451" lon="1.60834">
        <ele>250</ele>
        <time>2021-04-14T13:51:19Z</time>
      </trkpt>
      <trkpt lat="44.54336" lon="1.6088">
        <ele>247</ele>
        <time>2021-04-14T13:51:47Z</time>
      </trkpt>
      <trkpt lat="44.54239" lon="1.60964">
        <ele>241</ele>
        <time>2021-04-14T13:52:14Z</time>
      </trkpt>
      <trkpt lat="44.54093" lon="1.61148">
        <ele>229</ele>
        <time>2021-04-14T13:52:59Z</time>
      </trkpt>
      <trkpt lat="44.54033" lon="1.61141">
        <ele>231</ele>
        <time>2021-04-14T13:53:13Z</time>
      </trkpt>
      <trkpt lat="44.53902" lon="1.61351">
        <ele>204</ele>
        <time>2021-04-14T13:54:00Z</time>
      </trkpt>
      <trkpt lat="44.53954" lon="1.61356">
        <ele>209</ele>
        <time>2021-04-14T13:54:12Z</time>
      </trkpt>
      <trkpt lat="44.53965" lon="1.61398">
        <ele>208</ele>
        <time>2021-04-14T13:54:19Z</time>
      </trkpt>
      <trkpt lat="44.54022" lon="1.61418">
        <ele>214</ele>
        <time>2021-04-14T13:54:33Z</time>
      </trkpt>
      <trkpt lat="44.54061" lon="1.61459">
        <ele>222</ele>
        <time>2021-04-14T13:54:45Z</time>
      </trkpt>
      <trkpt lat="44.54159" lon="1.61503">
        <ele>219</ele>
        <time>2021-04-14T13:55:09Z</time>
      </trkpt>
      <trkpt lat="44.5426" lon="1.61478">
        <ele>234</ele>
        <time>2021-04-14T13:55:33Z</time>
      </trkpt>
      <trkpt lat="44.54331" lon="1.61524">
        <ele>230</ele>
        <time>2021-04-14T13:55:51Z</time>
      </trkpt>
      <trkpt lat="44.54366" lon="1.61497">
        <ele>233</ele>
        <time>2021-04-14T13:56:00Z</time>
      </trkpt>
      <trkpt lat="44.54416" lon="1.61491">
        <ele>234</ele>
        <time>2021-04-14T13:56:12Z</time>
      </trkpt>
      <trkpt lat="44.54445" lon="1.61541">
        <ele>233</ele>
        <time>2021-04-14T13:56:23Z</time>
      </trkpt>
      <trkpt lat="44.54475" lon="1.61607">
        <ele>234</ele>
        <time>2021-04-14T13:56:36Z</time>
      </trkpt>
      <trkpt lat="44.54529" lon="1.6168">
        <ele>228</ele>
        <time>2021-04-14T13:56:53Z</time>
      </trkpt>
      <trkpt lat="44.54593" lon="1.61653">
        <ele>237</ele>
        <time>2021-04-14T13:57:09Z</time>
      </trkpt>
      <trkpt lat="44.54715" lon="1.61671">
        <ele>246</ele>
        <time>2021-04-14T13:57:37Z</time>
      </trkpt>
      <trkpt lat="44.54785" lon="1.61814">
        <ele>247</ele>
        <time>2021-04-14T13:58:06Z</time>
      </trkpt>
      <trkpt lat="44.54832" lon="1.61935">
        <ele>247</ele>
        <time>2021-04-14T13:58:29Z</time>
      </trkpt>
      <trkpt lat="44.54815" lon="1.62031">
        <ele>245</ele>
        <time>2021-04-14T13:58:46Z</time>
      </trkpt>
      <trkpt lat="44.54811" lon="1.62078">
        <ele>243</ele>
        <time>2021-04-14T13:58:54Z</time>
      </trkpt>
      <trkpt lat="44.54916" lon="1.62067">
        <ele>252</ele>
        <time>2021-04-14T13:59:18Z</time>
      </trkpt>
      <trkpt lat="44.54952" lon="1.62158">
        <ele>242</ele>
        <time>2021-04-14T13:59:35Z</time>
      </trkpt>
      <trkpt lat="44.55117" lon="1.62047">
        <ele>255</ele>
        <time>2021-04-14T14:00:18Z</time>
      </trkpt>
      <trkpt lat="44.55194" lon="1.62009">
        <ele>256</ele>
        <time>2021-04-14T14:00:37Z</time>
      </trkpt>
      <trkpt lat="44.5531" lon="1.61984">
        <ele>256</ele>
        <time>2021-04-14T14:01:05Z</time>
      </trkpt>
      <trkpt lat="44.55328" lon="1.62016">
        <ele>253</ele>
        <time>2021-04-14T14:01:11Z</time>
      </trkpt>
      <trkpt lat="44.55313" lon="1.62047">
        <ele>250</ele>
        <time>2021-04-14T14:01:18Z</time>
      </trkpt>
      <trkpt lat="44.55285" lon="1.6214">
        <ele>249</ele>
        <time>2021-04-14T14:01:34Z</time>
      </trkpt>
      <trkpt lat="44.55272" lon="1.62239">
        <ele>266</ele>
        <time>2021-04-14T14:01:51Z</time>
      </trkpt>
      <trkpt lat="44.55337" lon="1.62365">
        <ele>275</ele>
        <time>2021-04-14T14:02:17Z</time>
      </trkpt>
      <trkpt lat="44.55364" lon="1.62562">
        <ele>276</ele>
        <time>2021-04-14T14:02:51Z</time>
      </trkpt>
      <trkpt lat="44.55371" lon="1.62635">
        <ele>281</ele>
        <time>2021-04-14T14:03:03Z</time>
      </trkpt>
      <trkpt lat="44.55395" lon="1.62634">
        <ele>282</ele>
        <time>2021-04-14T14:03:08Z</time>
      </trkpt>
      <trkpt lat="44.55443" lon="1.6279">
        <ele>296</ele>
        <time>2021-04-14T14:03:37Z</time>
      </trkpt>
      <trkpt lat="44.55429" lon="1.62861">
        <ele>300</ele>
        <time>2021-04-14T14:03:49Z</time>
      </trkpt>
      <trkpt lat="44.55474" lon="1.63131">
        <ele>309</ele>
        <time>2021-04-14T14:04:35Z</time>
      </trkpt>
      <trkpt lat="44.55515" lon="1.63215">
        <ele>308</ele>
        <time>2021-04-14T14:04:52Z</time>
      </trkpt>
      <trkpt lat="44.55576" lon="1.6332">
        <ele>302</ele>
        <time>2021-04-14T14:05:15Z</time>
      </trkpt>
      <trkpt lat="44.557" lon="1.63403">
        <ele>304</ele>
        <time>2021-04-14T14:05:47Z</time>
      </trkpt>
      <trkpt lat="44.55693" lon="1.63518">
        <ele>299</ele>
        <time>2021-04-14T14:06:06Z</time>
      </trkpt>
      <trkpt lat="44.55638" lon="1.63555">
        <ele>295</ele>
        <time>2021-04-14T14:06:20Z</time>
      </trkpt>
      <trkpt lat="44.55621" lon="1.6358">
        <ele>293</ele>
        <time>2021-04-14T14:06:26Z</time>
      </trkpt>
      <trkpt lat="44.55614" lon="1.63676">
        <ele>292</ele>
        <time>2021-04-14T14:06:42Z</time>
      </trkpt>
      <trkpt lat="44.55672" lon="1.63696">
        <ele>292</ele>
        <time>2021-04-14T14:06:56Z</time>
      </trkpt>
      <trkpt lat="44.55756" lon="1.63672">
        <ele>294</ele>
        <time>2021-04-14T14:07:16Z</time>
      </trkpt>
      <trkpt lat="44.55821" lon="1.6373">
        <ele>298</ele>
        <time>2021-04-14T14:07:34Z</time>
      </trkpt>
      <trkpt lat="44.55864" lon="1.63739">
        <ele>300</ele>
        <time>2021-04-14T14:07:44Z</time>
      </trkpt>
      <trkpt lat="44.55958" lon="1.6373">
        <ele>302</ele>
        <time>2021-04-14T14:08:06Z</time>
      </trkpt>
      <trkpt lat="44.56025" lon="1.63565">
        <ele>306</ele>
        <time>2021-04-14T14:08:38Z</time>
      </trkpt>
      <trkpt lat="44.56075" lon="1.63579">
        <ele>307</ele>
        <time>2021-04-14T14:08:49Z</time>
      </trkpt>
      <trkpt lat="44.56183" lon="1.63759">
        <ele>303</ele>
        <time>2021-04-14T14:09:29Z</time>
      </trkpt>
      <trkpt lat="44.5621" lon="1.63721">
        <ele>303</ele>
        <time>2021-04-14T14:09:38Z</time>
      </trkpt>
      <trkpt lat="44.56264" lon="1.63871">
        <ele>304</ele>
        <time>2021-04-14T14:10:06Z</time>
      </trkpt>
      <trkpt lat="44.56241" lon="1.63942">
        <ele>305</ele>
        <time>2021-04-14T14:10:19Z</time>
      </trkpt>
      <trkpt lat="44.56186" lon="1.63956">
        <ele>303</ele>
        <time>2021-04-14T14:10:32Z</time>
      </trkpt>
      <trkpt lat="44.56132" lon="1.63979">
        <ele>298</ele>
        <time>2021-04-14T14:10:45Z</time>
      </trkpt>
      <trkpt lat="44.56113" lon="1.63953">
        <ele>296</ele>
        <time>2021-04-14T14:10:51Z</time>
      </trkpt>
      <trkpt lat="44.56095" lon="1.63964">
        <ele>294</ele>
        <time>2021-04-14T14:10:56Z</time>
      </trkpt>
      <trkpt lat="44.56069" lon="1.63951">
        <ele>292</ele>
        <time>2021-04-14T14:11:02Z</time>
      </trkpt>
      <trkpt lat="44.56034" lon="1.63945">
        <ele>292</ele>
        <time>2021-04-14T14:11:10Z</time>
      </trkpt>
      <trkpt lat="44.55992" lon="1.63955">
        <ele>291</ele>
        <time>2021-04-14T14:11:20Z</time>
      </trkpt>
      <trkpt lat="44.55947" lon="1.63911">
        <ele>295</ele>
        <time>2021-04-14T14:11:33Z</time>
      </trkpt>
      <trkpt lat="44.559" lon="1.6392">
        <ele>296</ele>
        <time>2021-04-14T14:11:44Z</time>
      </trkpt>
      <trkpt lat="44.5588" lon="1.63906">
        <ele>298</ele>
        <time>2021-04-14T14:11:49Z</time>
      </trkpt>
      <trkpt lat="44.55844" lon="1.63946">
        <ele>299</ele>
        <time>2021-04-14T14:12:00Z</time>
      </trkpt>
      <trkpt lat="44.55802" lon="1.64014">
        <ele>299</ele>
        <time>2021-04-14T14:12:15Z</time>
      </trkpt>
      <trkpt lat="44.55805" lon="1.64058">
        <ele>300</ele>
        <time>2021-04-14T14:12:22Z</time>
      </trkpt>
      <trkpt lat="44.5578" lon="1.6414">
        <ele>300</ele>
        <time>2021-04-14T14:12:37Z</time>
      </trkpt>
      <trkpt lat="44.55708" lon="1.64205">
        <ele>298</ele>
        <time>2021-04-14T14:12:57Z</time>
      </trkpt>
      <trkpt lat="44.55602" lon="1.64269">
        <ele>291</ele>
        <time>2021-04-14T14:13:24Z</time>
      </trkpt>
      <trkpt lat="44.55472" lon="1.64301">
        <ele>285</ele>
        <time>2021-04-14T14:13:55Z</time>
      </trkpt>
      <trkpt lat="44.55366" lon="1.64619">
        <ele>281</ele>
        <time>2021-04-14T14:14:53Z</time>
      </trkpt>
      <trkpt lat="44.55261" lon="1.64592">
        <ele>286</ele>
        <time>2021-04-14T14:15:18Z</time>
      </trkpt>
      <trkpt lat="44.55251" lon="1.64653">
        <ele>284</ele>
        <time>2021-04-14T14:15:29Z</time>
      </trkpt>
      <trkpt lat="44.55309" lon="1.64766">
        <ele>285</ele>
        <time>2021-04-14T14:15:52Z</time>
      </trkpt>
      <trkpt lat="44.55254" lon="1.64681">
        <ele>283</ele>
        <time>2021-04-14T14:16:11Z</time>
      </trkpt>
      <trkpt lat="44.55244" lon="1.64537">
        <ele>288</ele>
        <time>2021-04-14T14:16:35Z</time>
      </trkpt>
      <trkpt lat="44.55258" lon="1.64401">
        <ele>293</ele>
        <time>2021-04-14T14:16:58Z</time>
      </trkpt>
      <trkpt lat="44.55229" lon="1.64348">
        <ele>293</ele>
        <time>2021-04-14T14:17:09Z</time>
      </trkpt>
      <trkpt lat="44.55178" lon="1.64216">
        <ele>298</ele>
        <time>2021-04-14T14:17:34Z</time>
      </trkpt>
      <trkpt lat="44.55112" lon="1.63888">
        <ele>303</ele>
        <time>2021-04-14T14:18:31Z</time>
      </trkpt>
      <trkpt lat="44.55115" lon="1.63821">
        <ele>302</ele>
        <time>2021-04-14T14:18:42Z</time>
      </trkpt>
      <trkpt lat="44.55181" lon="1.63606">
        <ele>295</ele>
        <time>2021-04-14T14:19:21Z</time>
      </trkpt>
      <trkpt lat="44.55011" lon="1.63235">
        <ele>290</ele>
        <time>2021-04-14T14:20:34Z</time>
      </trkpt>
      <trkpt lat="44.5494" lon="1.6314">
        <ele>292</ele>
        <time>2021-04-14T14:20:57Z</time>
      </trkpt>
      <trkpt lat="44.54887" lon="1.62948">
        <ele>300</ele>
        <time>2021-04-14T14:21:31Z</time>
      </trkpt>
      <trkpt lat="44.5482" lon="1.62836">
        <ele>302</ele>
        <time>2021-04-14T14:21:56Z</time>
      </trkpt>
      <trkpt lat="44.54761" lon="1.62618">
        <ele>301</ele>
        <time>2021-04-14T14:22:35Z</time>
      </trkpt>
      <trkpt lat="44.54707" lon="1.62526">
        <ele>299</ele>
        <time>2021-04-14T14:22:54Z</time>
      </trkpt>
      <trkpt lat="44.54733" lon="1.62435">
        <ele>294</ele>
        <time>2021-04-14T14:23:11Z</time>
      </trkpt>
      <trkpt lat="44.5466" lon="1.62325">
        <ele>291</ele>
        <time>2021-04-14T14:23:36Z</time>
      </trkpt>
      <trkpt lat="44.54626" lon="1.62292">
        <ele>289</ele>
        <time>2021-04-14T14:23:45Z</time>
      </trkpt>
      <trkpt lat="44.54567" lon="1.62271">
        <ele>286</ele>
        <time>2021-04-14T14:24:00Z</time>
      </trkpt>
      <trkpt lat="44.54528" lon="1.62236">
        <ele>279</ele>
        <time>2021-04-14T14:24:10Z</time>
      </trkpt>
      <trkpt lat="44.54482" lon="1.6211">
        <ele>269</ele>
        <time>2021-04-14T14:24:34Z</time>
      </trkpt>
      <trkpt lat="44.5446" lon="1.62075">
        <ele>268</ele>
        <time>2021-04-14T14:24:42Z</time>
      </trkpt>
      <trkpt lat="44.54426" lon="1.62011">
        <ele>267</ele>
        <time>2021-04-14T14:24:55Z</time>
      </trkpt>
      <trkpt lat="44.54421" lon="1.61959">
        <ele>266</ele>
        <time>2021-04-14T14:25:04Z</time>
      </trkpt>
      <trkpt lat="44.54406" lon="1.61932">
        <ele>268</ele>
        <time>2021-04-14T14:25:10Z</time>
      </trkpt>
      <trkpt lat="44.54373" lon="1.61944">
        <ele>273</ele>
        <time>2021-04-14T14:25:17Z</time>
      </trkpt>
      <trkpt lat="44.54346" lon="1.62">
        <ele>279</ele>
        <time>2021-04-14T14:25:29Z</time>
      </trkpt>
      <trkpt lat="44.54343" lon="1.6216">
        <ele>282</ele>
        <time>2021-04-14T14:25:55Z</time>
      </trkpt>
      <trkpt lat="44.54336" lon="1.62277">
        <ele>286</ele>
        <time>2021-04-14T14:26:15Z</time>
      </trkpt>
      <trkpt lat="44.5431" lon="1.62346">
        <ele>289</ele>
        <time>2021-04-14T14:26:28Z</time>
      </trkpt>
      <trkpt lat="44.54298" lon="1.62427">
        <ele>289</ele>
        <time>2021-04-14T14:26:42Z</time>
      </trkpt>
      <trkpt lat="44.54289" lon="1.62515">
        <ele>288</ele>
        <time>2021-04-14T14:26:56Z</time>
      </trkpt>
      <trkpt lat="44.54261" lon="1.62638">
        <ele>293</ele>
        <time>2021-04-14T14:27:18Z</time>
      </trkpt>
      <trkpt lat="44.54275" lon="1.62692">
        <ele>293</ele>
        <time>2021-04-14T14:27:28Z</time>
      </trkpt>
      <trkpt lat="44.54277" lon="1.62788">
        <ele>295</ele>
        <time>2021-04-14T14:27:43Z</time>
      </trkpt>
      <trkpt lat="44.542" lon="1.62865">
        <ele>300</ele>
        <time>2021-04-14T14:28:06Z</time>
      </trkpt>
      <trkpt lat="44.5416" lon="1.62955">
        <ele>307</ele>
        <time>2021-04-14T14:28:23Z</time>
      </trkpt>
      <trkpt lat="44.54129" lon="1.62985">
        <ele>307</ele>
        <time>2021-04-14T14:28:32Z</time>
      </trkpt>
      <trkpt lat="44.54105" lon="1.62997">
        <ele>306</ele>
        <time>2021-04-14T14:28:38Z</time>
      </trkpt>
      <trkpt lat="44.54144" lon="1.6319">
        <ele>303</ele>
        <time>2021-04-14T14:29:11Z</time>
      </trkpt>
      <trkpt lat="44.54169" lon="1.63202">
        <ele>308</ele>
        <time>2021-04-14T14:29:18Z</time>
      </trkpt>
      <trkpt lat="44.54169" lon="1.63275">
        <ele>309</ele>
        <time>2021-04-14T14:29:30Z</time>
      </trkpt>
      <trkpt lat="44.54011" lon="1.63389">
        <ele>290</ele>
        <time>2021-04-14T14:30:11Z</time>
      </trkpt>
      <trkpt lat="44.53925" lon="1.63414">
        <ele>282</ele>
        <time>2021-04-14T14:30:32Z</time>
      </trkpt>
      <trkpt lat="44.53872" lon="1.6353">
        <ele>277</ele>
        <time>2021-04-14T14:30:55Z</time>
      </trkpt>
      <trkpt lat="44.5389" lon="1.63533">
        <ele>283</ele>
        <time>2021-04-14T14:30:59Z</time>
      </trkpt>
      <trkpt lat="44.53985" lon="1.63726">
        <ele>287</ele>
        <time>2021-04-14T14:31:38Z</time>
      </trkpt>
      <trkpt lat="44.5396" lon="1.63779">
        <ele>289</ele>
        <time>2021-04-14T14:31:48Z</time>
      </trkpt>
      <trkpt lat="44.53887" lon="1.63748">
        <ele>285</ele>
        <time>2021-04-14T14:32:06Z</time>
      </trkpt>
      <trkpt lat="44.53823" lon="1.63688">
        <ele>277</ele>
        <time>2021-04-14T14:32:24Z</time>
      </trkpt>
      <trkpt lat="44.53706" lon="1.63586">
        <ele>275</ele>
        <time>2021-04-14T14:32:56Z</time>
      </trkpt>
      <trkpt lat="44.53632" lon="1.63518">
        <ele>281</ele>
        <time>2021-04-14T14:33:17Z</time>
      </trkpt>
      <trkpt lat="44.53579" lon="1.63538">
        <ele>286</ele>
        <time>2021-04-14T14:33:30Z</time>
      </trkpt>
      <trkpt lat="44.53576" lon="1.63612">
        <ele>290</ele>
        <time>2021-04-14T14:33:42Z</time>
      </trkpt>
      <trkpt lat="44.53564" lon="1.63736">
        <ele>295</ele>
        <time>2021-04-14T14:34:03Z</time>
      </trkpt>
      <trkpt lat="44.53514" lon="1.63897">
        <ele>300</ele>
        <time>2021-04-14T14:34:32Z</time>
      </trkpt>
      <trkpt lat="44.53493" lon="1.63955">
        <ele>301</ele>
        <time>2021-04-14T14:34:43Z</time>
      </trkpt>
      <trkpt lat="44.53476" lon="1.64108">
        <ele>308</ele>
        <time>2021-04-14T14:35:09Z</time>
      </trkpt>
      <trkpt lat="44.5345" lon="1.64169">
        <ele>305</ele>
        <time>2021-04-14T14:35:21Z</time>
      </trkpt>
      <trkpt lat="44.53381" lon="1.64201">
        <ele>294</ele>
        <time>2021-04-14T14:35:38Z</time>
      </trkpt>
      <trkpt lat="44.53249" lon="1.6396">
        <ele>269</ele>
        <time>2021-04-14T14:36:28Z</time>
      </trkpt>
      <trkpt lat="44.53185" lon="1.63822">
        <ele>251</ele>
        <time>2021-04-14T14:36:56Z</time>
      </trkpt>
      <trkpt lat="44.53162" lon="1.63767">
        <ele>249</ele>
        <time>2021-04-14T14:37:06Z</time>
      </trkpt>
      <trkpt lat="44.53122" lon="1.63807">
        <ele>247</ele>
        <time>2021-04-14T14:37:18Z</time>
      </trkpt>
      <trkpt lat="44.53063" lon="1.63999">
        <ele>233</ele>
        <time>2021-04-14T14:37:53Z</time>
      </trkpt>
      <trkpt lat="44.53031" lon="1.64161">
        <ele>222</ele>
        <time>2021-04-14T14:38:21Z</time>
      </trkpt>
      <trkpt lat="44.5299" lon="1.64331">
        <ele>213</ele>
        <time>2021-04-14T14:38:50Z</time>
      </trkpt>
      <trkpt lat="44.52984" lon="1.64494">
        <ele>194</ele>
        <time>2021-04-14T14:39:18Z</time>
      </trkpt>
      <trkpt lat="44.53" lon="1.64526">
        <ele>192</ele>
        <time>2021-04-14T14:39:24Z</time>
      </trkpt>
      <trkpt lat="44.53058" lon="1.64539">
        <ele>195</ele>
        <time>2021-04-14T14:39:38Z</time>
      </trkpt>
      <trkpt lat="44.53108" lon="1.64536">
        <ele>199</ele>
        <time>2021-04-14T14:39:50Z</time>
      </trkpt>
      <trkpt lat="44.53124" lon="1.64557">
        <ele>199</ele>
        <time>2021-04-14T14:39:55Z</time>
      </trkpt>
      <trkpt lat="44.53109" lon="1.64603">
        <ele>196</ele>
        <time>2021-04-14T14:40:03Z</time>
      </trkpt>
      <trkpt lat="44.52994" lon="1.64653">
        <ele>191</ele>
        <time>2021-04-14T14:40:31Z</time>
      </trkpt>
      <trkpt lat="44.52995" lon="1.64689">
        <ele>193</ele>
        <time>2021-04-14T14:40:37Z</time>
      </trkpt>
      <trkpt lat="44.53041" lon="1.6473">
        <ele>198</ele>
        <time>2021-04-14T14:40:50Z</time>
      </trkpt>
      <trkpt lat="44.53067" lon="1.64799">
        <ele>201</ele>
        <time>2021-04-14T14:41:03Z</time>
      </trkpt>
      <trkpt lat="44.53114" lon="1.64853">
        <ele>205</ele>
        <time>2021-04-14T14:41:17Z</time>
      </trkpt>
      <trkpt lat="44.53155" lon="1.64861">
        <ele>207</ele>
        <time>2021-04-14T14:41:27Z</time>
      </trkpt>
      <trkpt lat="44.5319" lon="1.64864">
        <ele>207</ele>
        <time>2021-04-14T14:41:35Z</time>
      </trkpt>
      <trkpt lat="44.53226" lon="1.64884">
        <ele>211</ele>
        <time>2021-04-14T14:41:44Z</time>
      </trkpt>
      <trkpt lat="44.53254" lon="1.64845">
        <ele>206</ele>
        <time>2021-04-14T14:41:53Z</time>
      </trkpt>
      <trkpt lat="44.53268" lon="1.6478">
        <ele>209</ele>
        <time>2021-04-14T14:42:05Z</time>
      </trkpt>
      <trkpt lat="44.53288" lon="1.64763">
        <ele>210</ele>
        <time>2021-04-14T14:42:10Z</time>
      </trkpt>
      <trkpt lat="44.53326" lon="1.64769">
        <ele>209</ele>
        <time>2021-04-14T14:42:19Z</time>
      </trkpt>
      <trkpt lat="44.53376" lon="1.6479">
        <ele>212</ele>
        <time>2021-04-14T14:42:31Z</time>
      </trkpt>
      <trkpt lat="44.53373" lon="1.64843">
        <ele>210</ele>
        <time>2021-04-14T14:42:40Z</time>
      </trkpt>
      <trkpt lat="44.53389" lon="1.64883">
        <ele>215</ele>
        <time>2021-04-14T14:42:48Z</time>
      </trkpt>
      <trkpt lat="44.53433" lon="1.64894">
        <ele>215</ele>
        <time>2021-04-14T14:42:58Z</time>
      </trkpt>
      <trkpt lat="44.5346" lon="1.64881">
        <ele>214</ele>
        <time>2021-04-14T14:43:05Z</time>
      </trkpt>
      <trkpt lat="44.53527" lon="1.64879">
        <ele>214</ele>
        <time>2021-04-14T14:43:20Z</time>
      </trkpt>
      <trkpt lat="44.53555" lon="1.64924">
        <ele>214</ele>
        <time>2021-04-14T14:43:30Z</time>
      </trkpt>
      <trkpt lat="44.53574" lon="1.64988">
        <ele>218</ele>
        <time>2021-04-14T14:43:42Z</time>
      </trkpt>
      <trkpt lat="44.53642" lon="1.65097">
        <ele>224</ele>
        <time>2021-04-14T14:44:06Z</time>
      </trkpt>
      <trkpt lat="44.5369" lon="1.65204">
        <ele>220</ele>
        <time>2021-04-14T14:44:27Z</time>
      </trkpt>
      <trkpt lat="44.53739" lon="1.65235">
        <ele>217</ele>
        <time>2021-04-14T14:44:40Z</time>
      </trkpt>
      <trkpt lat="44.53766" lon="1.65311">
        <ele>221</ele>
        <time>2021-04-14T14:44:54Z</time>
      </trkpt>
      <trkpt lat="44.53762" lon="1.65337">
        <ele>221</ele>
        <time>2021-04-14T14:44:58Z</time>
      </trkpt>
      <trkpt lat="44.53764" lon="1.6539">
        <ele>223</ele>
        <time>2021-04-14T14:45:07Z</time>
      </trkpt>
      <trkpt lat="44.53786" lon="1.65398">
        <ele>228</ele>
        <time>2021-04-14T14:45:12Z</time>
      </trkpt>
      <trkpt lat="44.53799" lon="1.65455">
        <ele>228</ele>
        <time>2021-04-14T14:45:22Z</time>
      </trkpt>
      <trkpt lat="44.53829" lon="1.65542">
        <ele>222</ele>
        <time>2021-04-14T14:45:38Z</time>
      </trkpt>
      <trkpt lat="44.53853" lon="1.65548">
        <ele>225</ele>
        <time>2021-04-14T14:45:44Z</time>
      </trkpt>
      <trkpt lat="44.53902" lon="1.65566">
        <ele>229</ele>
        <time>2021-04-14T14:45:56Z</time>
      </trkpt>
      <trkpt lat="44.53918" lon="1.65635">
        <ele>224</ele>
        <time>2021-04-14T14:46:08Z</time>
      </trkpt>
      <trkpt lat="44.5392" lon="1.6574">
        <ele>221</ele>
        <time>2021-04-14T14:46:25Z</time>
      </trkpt>
      <trkpt lat="44.53957" lon="1.65812">
        <ele>227</ele>
        <time>2021-04-14T14:46:40Z</time>
      </trkpt>
      <trkpt lat="44.54035" lon="1.65926">
        <ele>228</ele>
        <time>2021-04-14T14:47:06Z</time>
      </trkpt>
      <trkpt lat="44.54056" lon="1.66002">
        <ele>225</ele>
        <time>2021-04-14T14:47:20Z</time>
      </trkpt>
      <trkpt lat="44.54097" lon="1.66106">
        <ele>232</ele>
        <time>2021-04-14T14:47:40Z</time>
      </trkpt>
      <trkpt lat="44.54109" lon="1.66223">
        <ele>243</ele>
        <time>2021-04-14T14:48:00Z</time>
      </trkpt>
      <trkpt lat="44.54124" lon="1.66294">
        <ele>247</ele>
        <time>2021-04-14T14:48:12Z</time>
      </trkpt>
      <trkpt lat="44.54185" lon="1.66389">
        <ele>253</ele>
        <time>2021-04-14T14:48:33Z</time>
      </trkpt>
      <trkpt lat="44.54201" lon="1.66506">
        <ele>258</ele>
        <time>2021-04-14T14:48:53Z</time>
      </trkpt>
      <trkpt lat="44.54224" lon="1.66535">
        <ele>264</ele>
        <time>2021-04-14T14:49:00Z</time>
      </trkpt>
      <trkpt lat="44.54177" lon="1.66637">
        <ele>266</ele>
        <time>2021-04-14T14:49:20Z</time>
      </trkpt>
      <trkpt lat="44.54164" lon="1.66711">
        <ele>270</ele>
        <time>2021-04-14T14:49:33Z</time>
      </trkpt>
      <trkpt lat="44.54173" lon="1.66744">
        <ele>274</ele>
        <time>2021-04-14T14:49:39Z</time>
      </trkpt>
      <trkpt lat="44.54169" lon="1.66868">
        <ele>278</ele>
        <time>2021-04-14T14:50:00Z</time>
      </trkpt>
      <trkpt lat="44.54115" lon="1.66907">
        <ele>281</ele>
        <time>2021-04-14T14:50:14Z</time>
      </trkpt>
      <trkpt lat="44.54075" lon="1.66961">
        <ele>287</ele>
        <time>2021-04-14T14:50:27Z</time>
      </trkpt>
      <trkpt lat="44.54016" lon="1.67017">
        <ele>295</ele>
        <time>2021-04-14T14:50:43Z</time>
      </trkpt>
      <trkpt lat="44.53939" lon="1.67077">
        <ele>298</ele>
        <time>2021-04-14T14:51:04Z</time>
      </trkpt>
      <trkpt lat="44.53833" lon="1.66986">
        <ele>292</ele>
        <time>2021-04-14T14:51:33Z</time>
      </trkpt>
      <trkpt lat="44.53808" lon="1.669">
        <ele>288</ele>
        <time>2021-04-14T14:51:48Z</time>
      </trkpt>
      <trkpt lat="44.53787" lon="1.66911">
        <ele>287</ele>
        <time>2021-04-14T14:51:54Z</time>
      </trkpt>
      <trkpt lat="44.53774" lon="1.6684">
        <ele>287</ele>
        <time>2021-04-14T14:52:06Z</time>
      </trkpt>
      <trkpt lat="44.5377" lon="1.66777">
        <ele>289</ele>
        <time>2021-04-14T14:52:16Z</time>
      </trkpt>
      <trkpt lat="44.53673" lon="1.66683">
        <ele>296</ele>
        <time>2021-04-14T14:52:44Z</time>
      </trkpt>
      <trkpt lat="44.53562" lon="1.6659">
        <ele>306</ele>
        <time>2021-04-14T14:53:14Z</time>
      </trkpt>
      <trkpt lat="44.53489" lon="1.66483">
        <ele>320</ele>
        <time>2021-04-14T14:53:39Z</time>
      </trkpt>
      <trkpt lat="44.53443" lon="1.66424">
        <ele>326</ele>
        <time>2021-04-14T14:53:53Z</time>
      </trkpt>
      <trkpt lat="44.53362" lon="1.66492">
        <ele>327</ele>
        <time>2021-04-14T14:54:15Z</time>
      </trkpt>
      <trkpt lat="44.53282" lon="1.66614">
        <ele>327</ele>
        <time>2021-04-14T14:54:43Z</time>
      </trkpt>
      <trkpt lat="44.53137" lon="1.66823">
        <ele>316</ele>
        <time>2021-04-14T14:55:32Z</time>
      </trkpt>
      <trkpt lat="44.53098" lon="1.66908">
        <ele>312</ele>
        <time>2021-04-14T14:55:48Z</time>
      </trkpt>
      <trkpt lat="44.53084" lon="1.66913">
        <ele>311</ele>
        <time>2021-04-14T14:55:52Z</time>
      </trkpt>
      <trkpt lat="44.53011" lon="1.66807">
        <ele>299</ele>
        <time>2021-04-14T14:56:16Z</time>
      </trkpt>
      <trkpt lat="44.53093" lon="1.66627">
        <ele>302</ele>
        <time>2021-04-14T14:56:52Z</time>
      </trkpt>
      <trkpt lat="44.5314" lon="1.66487">
        <ele>306</ele>
        <time>2021-04-14T14:57:18Z</time>
      </trkpt>
      <trkpt lat="44.53033" lon="1.66488">
        <ele>291</ele>
        <time>2021-04-14T14:57:43Z</time>
      </trkpt>
      <trkpt lat="44.53034" lon="1.66461">
        <ele>295</ele>
        <time>2021-04-14T14:57:47Z</time>
      </trkpt>
      <trkpt lat="44.52986" lon="1.66429">
        <ele>293</ele>
        <time>2021-04-14T14:57:59Z</time>
      </trkpt>
      <trkpt lat="44.52883" lon="1.66366">
        <ele>289</ele>
        <time>2021-04-14T14:58:26Z</time>
      </trkpt>
      <trkpt lat="44.52765" lon="1.66317">
        <ele>280</ele>
        <time>2021-04-14T14:58:54Z</time>
      </trkpt>
      <trkpt lat="44.52686" lon="1.66214">
        <ele>273</ele>
        <time>2021-04-14T14:59:20Z</time>
      </trkpt>
      <trkpt lat="44.52588" lon="1.66198">
        <ele>271</ele>
        <time>2021-04-14T14:59:43Z</time>
      </trkpt>
      <trkpt lat="44.52478" lon="1.66238">
        <ele>272</ele>
        <time>2021-04-14T15:00:09Z</time>
      </trkpt>
      <trkpt lat="44.52434" lon="1.66227">
        <ele>274</ele>
        <time>2021-04-14T15:00:20Z</time>
      </trkpt>
      <trkpt lat="44.52385" lon="1.6624">
        <ele>273</ele>
        <time>2021-04-14T15:00:31Z</time>
      </trkpt>
      <trkpt lat="44.5227" lon="1.66285">
        <ele>268</ele>
        <time>2021-04-14T15:00:59Z</time>
      </trkpt>
      <trkpt lat="44.52181" lon="1.66198">
        <ele>266</ele>
        <time>2021-04-14T15:01:25Z</time>
      </trkpt>
      <trkpt lat="44.52125" lon="1.66137">
        <ele>267</ele>
        <time>2021-04-14T15:01:41Z</time>
      </trkpt>
      <trkpt lat="44.52091" lon="1.66152">
        <ele>270</ele>
        <time>2021-04-14T15:01:49Z</time>
      </trkpt>
      <trkpt lat="44.52006" lon="1.66176">
        <ele>277</ele>
        <time>2021-04-14T15:02:10Z</time>
      </trkpt>
      <trkpt lat="44.51969" lon="1.66168">
        <ele>282</ele>
        <time>2021-04-14T15:02:18Z</time>
      </trkpt>
      <trkpt lat="44.51899" lon="1.66096">
        <ele>289</ele>
        <time>2021-04-14T15:02:39Z</time>
      </trkpt>
      <trkpt lat="44.51689" lon="1.66033">
        <ele>287</ele>
        <time>2021-04-14T15:03:29Z</time>
      </trkpt>
      <trkpt lat="44.51488" lon="1.66083">
        <ele>278</ele>
        <time>2021-04-14T15:04:17Z</time>
      </trkpt>
      <trkpt lat="44.51463" lon="1.65709">
        <ele>260</ele>
        <time>2021-04-14T15:05:19Z</time>
      </trkpt>
      <trkpt lat="44.51527" lon="1.65654">
        <ele>253</ele>
        <time>2021-04-14T15:05:37Z</time>
      </trkpt>
      <trkpt lat="44.51572" lon="1.65601">
        <ele>242</ele>
        <time>2021-04-14T15:05:50Z</time>
      </trkpt>
      <trkpt lat="44.51574" lon="1.65545">
        <ele>239</ele>
        <time>2021-04-14T15:06:00Z</time>
      </trkpt>
      <trkpt lat="44.51628" lon="1.65496">
        <ele>230</ele>
        <time>2021-04-14T15:06:15Z</time>
      </trkpt>
      <trkpt lat="44.5166" lon="1.65376">
        <ele>222</ele>
        <time>2021-04-14T15:06:36Z</time>
      </trkpt>
      <trkpt lat="44.51363" lon="1.64911">
        <ele>186</ele>
        <time>2021-04-14T15:08:20Z</time>
      </trkpt>
      <trkpt lat="44.51307" lon="1.64892">
        <ele>179</ele>
        <time>2021-04-14T15:08:33Z</time>
      </trkpt>
      <trkpt lat="44.51225" lon="1.64885">
        <ele>172</ele>
        <time>2021-04-14T15:08:53Z</time>
      </trkpt>
      <trkpt lat="44.51061" lon="1.6501">
        <ele>176</ele>
        <time>2021-04-14T15:09:36Z</time>
      </trkpt>
      <trkpt lat="44.51028" lon="1.64989">
        <ele>172</ele>
        <time>2021-04-14T15:09:45Z</time>
      </trkpt>
      <trkpt lat="44.50988" lon="1.64919">
        <ele>164</ele>
        <time>2021-04-14T15:10:00Z</time>
      </trkpt>
      <trkpt lat="44.5102" lon="1.649">
        <ele>166</ele>
        <time>2021-04-14T15:10:08Z</time>
      </trkpt>
      <trkpt lat="44.51092" lon="1.64888">
        <ele>167</ele>
        <time>2021-04-14T15:10:25Z</time>
      </trkpt>
      <trkpt lat="44.51241" lon="1.64747">
        <ele>174</ele>
        <time>2021-04-14T15:11:07Z</time>
      </trkpt>
      <trkpt lat="44.51283" lon="1.64735">
        <ele>175</ele>
        <time>2021-04-14T15:11:17Z</time>
      </trkpt>
      <trkpt lat="44.51378" lon="1.64684">
        <ele>184</ele>
        <time>2021-04-14T15:11:40Z</time>
      </trkpt>
      <trkpt lat="44.51434" lon="1.64662">
        <ele>182</ele>
        <time>2021-04-14T15:11:54Z</time>
      </trkpt>
      <trkpt lat="44.51458" lon="1.6464">
        <ele>184</ele>
        <time>2021-04-14T15:12:01Z</time>
      </trkpt>
      <trkpt lat="44.51322" lon="1.64658">
        <ele>196</ele>
        <time>2021-04-14T15:12:33Z</time>
      </trkpt>
      <trkpt lat="44.51248" lon="1.64515">
        <ele>214</ele>
        <time>2021-04-14T15:13:02Z</time>
      </trkpt>
      <trkpt lat="44.51135" lon="1.64199">
        <ele>243</ele>
        <time>2021-04-14T15:14:01Z</time>
      </trkpt>
      <trkpt lat="44.51107" lon="1.6413">
        <ele>245</ele>
        <time>2021-04-14T15:14:14Z</time>
      </trkpt>
      <trkpt lat="44.51074" lon="1.64151">
        <ele>243</ele>
        <time>2021-04-14T15:14:23Z</time>
      </trkpt>
      <trkpt lat="44.51037" lon="1.6443">
        <ele>256</ele>
        <time>2021-04-14T15:15:10Z</time>
      </trkpt>
      <trkpt lat="44.50983" lon="1.64537">
        <ele>262</ele>
        <time>2021-04-14T15:15:32Z</time>
      </trkpt>
      <trkpt lat="44.50916" lon="1.64529">
        <ele>272</ele>
        <time>2021-04-14T15:15:47Z</time>
      </trkpt>
      <trkpt lat="44.50759" lon="1.64443">
        <ele>287</ele>
        <time>2021-04-14T15:16:27Z</time>
      </trkpt>
      <trkpt lat="44.5083" lon="1.64426">
        <ele>288</ele>
        <time>2021-04-14T15:16:44Z</time>
      </trkpt>
      <trkpt lat="44.50752" lon="1.64166">
        <ele>310</ele>
        <time>2021-04-14T15:17:30Z</time>
      </trkpt>
      <trkpt lat="44.50648" lon="1.64166">
        <ele>326</ele>
        <time>2021-04-14T15:17:55Z</time>
      </trkpt>
      <trkpt lat="44.50573" lon="1.64356">
        <ele>330</ele>
        <time>2021-04-14T15:18:31Z</time>
      </trkpt>
      <trkpt lat="44.50468" lon="1.64603">
        <ele>321</ele>
        <time>2021-04-14T15:19:19Z</time>
      </trkpt>
      <trkpt lat="44.50334" lon="1.64583">
        <ele>330</ele>
        <time>2021-04-14T15:19:50Z</time>
      </trkpt>
      <trkpt lat="44.50148" lon="1.64639">
        <ele>327</ele>
        <time>2021-04-14T15:20:35Z</time>
      </trkpt>
      <trkpt lat="44.50083" lon="1.64617">
        <ele>330</ele>
        <time>2021-04-14T15:20:50Z</time>
      </trkpt>
      <trkpt lat="44.50043" lon="1.6452">
        <ele>337</ele>
        <time>2021-04-14T15:21:09Z</time>
      </trkpt>
      <trkpt lat="44.49855" lon="1.64368">
        <ele>327</ele>
        <time>2021-04-14T15:22:00Z</time>
      </trkpt>
      <trkpt lat="44.49817" lon="1.64323">
        <ele>322</ele>
        <time>2021-04-14T15:22:11Z</time>
      </trkpt>
      <trkpt lat="44.498" lon="1.64264">
        <ele>322</ele>
        <time>2021-04-14T15:22:22Z</time>
      </trkpt>
      <trkpt lat="44.49705" lon="1.64229">
        <ele>316</ele>
        <time>2021-04-14T15:22:45Z</time>
      </trkpt>
      <trkpt lat="44.49335" lon="1.64343">
        <ele>260</ele>
        <time>2021-04-14T15:24:13Z</time>
      </trkpt>
      <trkpt lat="44.49365" lon="1.64435">
        <ele>259</ele>
        <time>2021-04-14T15:24:30Z</time>
      </trkpt>
      <trkpt lat="44.49446" lon="1.64729">
        <ele>266</ele>
        <time>2021-04-14T15:25:23Z</time>
      </trkpt>
      <trkpt lat="44.49435" lon="1.6478">
        <ele>265</ele>
        <time>2021-04-14T15:25:32Z</time>
      </trkpt>
      <trkpt lat="44.49272" lon="1.64807">
        <ele>261</ele>
        <time>2021-04-14T15:26:10Z</time>
      </trkpt>
      <trkpt lat="44.49097" lon="1.64843">
        <ele>273</ele>
        <time>2021-04-14T15:26:51Z</time>
      </trkpt>
      <trkpt lat="44.48963" lon="1.64874">
        <ele>276</ele>
        <time>2021-04-14T15:27:23Z</time>
      </trkpt>
      <trkpt lat="44.4879" lon="1.64827">
        <ele>271</ele>
        <time>2021-04-14T15:28:04Z</time>
      </trkpt>
      <trkpt lat="44.48595" lon="1.64783">
        <ele>247</ele>
        <time>2021-04-14T15:28:50Z</time>
      </trkpt>
      <trkpt lat="44.48549" lon="1.64854">
        <ele>233</ele>
        <time>2021-04-14T15:29:06Z</time>
      </trkpt>
      <trkpt lat="44.48385" lon="1.64886">
        <ele>196</ele>
        <time>2021-04-14T15:29:45Z</time>
      </trkpt>
      <trkpt lat="44.48391" lon="1.64789">
        <ele>189</ele>
        <time>2021-04-14T15:30:01Z</time>
      </trkpt>
      <trkpt lat="44.47926" lon="1.65081">
        <ele>147</ele>
        <time>2021-04-14T15:32:00Z</time>
      </trkpt>
      <trkpt lat="44.47892" lon="1.64985">
        <ele>143</ele>
        <time>2021-04-14T15:32:18Z</time>
      </trkpt>
      <trkpt lat="44.47934" lon="1.64915">
        <ele>140</ele>
        <time>2021-04-14T15:32:33Z</time>
      </trkpt>
      <trkpt lat="44.48409" lon="1.64668">
        <ele>155</ele>
        <time>2021-04-14T15:34:31Z</time>
      </trkpt>
      <trkpt lat="44.48491" lon="1.64213">
        <ele>139</ele>
        <time>2021-04-14T15:35:50Z</time>
      </trkpt>
      <trkpt lat="44.48505" lon="1.63984">
        <ele>145</ele>
        <time>2021-04-14T15:36:28Z</time>
      </trkpt>
      <trkpt lat="44.4851" lon="1.63823">
        <ele>150</ele>
        <time>2021-04-14T15:36:55Z</time>
      </trkpt>
      <trkpt lat="44.48494" lon="1.63695">
        <ele>155</ele>
        <time>2021-04-14T15:37:16Z</time>
      </trkpt>
      <trkpt lat="44.48486" lon="1.6352">
        <ele>154</ele>
        <time>2021-04-14T15:37:46Z</time>
      </trkpt>
      <trkpt lat="44.48517" lon="1.63297">
        <ele>154</ele>
        <time>2021-04-14T15:38:24Z</time>
      </trkpt>
      <trkpt lat="44.48491" lon="1.63168">
        <ele>153</ele>
        <time>2021-04-14T15:38:46Z</time>
      </trkpt>
      <trkpt lat="44.48505" lon="1.6301">
        <ele>153</ele>
        <time>2021-04-14T15:39:12Z</time>
      </trkpt>
      <trkpt lat="44.48571" lon="1.62784">
        <ele>151</ele>
        <time>2021-04-14T15:39:53Z</time>
      </trkpt>
      <trkpt lat="44.48636" lon="1.62515">
        <ele>155</ele>
        <time>2021-04-14T15:40:40Z</time>
      </trkpt>
      <trkpt lat="44.48638" lon="1.62317">
        <ele>148</ele>
        <time>2021-04-14T15:41:13Z</time>
      </trkpt>
      <trkpt lat="44.48512" lon="1.62104">
        <ele>158</ele>
        <time>2021-04-14T15:41:59Z</time>
      </trkpt>
      <trkpt lat="44.48451" lon="1.61801">
        <ele>152</ele>
        <time>2021-04-14T15:42:52Z</time>
      </trkpt>
      <trkpt lat="44.48528" lon="1.61687">
        <ele>149</ele>
        <time>2021-04-14T15:43:18Z</time>
      </trkpt>
      <trkpt lat="44.48572" lon="1.61588">
        <ele>143</ele>
        <time>2021-04-14T15:43:38Z</time>
      </trkpt>
      <trkpt lat="44.48463" lon="1.61299">
        <ele>140</ele>
        <time>2021-04-14T15:44:32Z</time>
      </trkpt>
      <trkpt lat="44.48258" lon="1.61144">
        <ele>137</ele>
        <time>2021-04-14T15:45:26Z</time>
      </trkpt>
      <trkpt lat="44.48164" lon="1.61184">
        <ele>140</ele>
        <time>2021-04-14T15:45:49Z</time>
      </trkpt>
      <trkpt lat="44.48048" lon="1.61169">
        <ele>141</ele>
        <time>2021-04-14T15:46:17Z</time>
      </trkpt>
      <trkpt lat="44.47815" lon="1.61061">
        <ele>136</ele>
        <time>2021-04-14T15:47:14Z</time>
      </trkpt>
      <trkpt lat="44.47428" lon="1.6094">
        <ele>136</ele>
        <time>2021-04-14T15:48:46Z</time>
      </trkpt>
      <trkpt lat="44.47383" lon="1.61081">
        <ele>164</ele>
        <time>2021-04-14T15:49:12Z</time>
      </trkpt>
      <trkpt lat="44.47345" lon="1.61139">
        <ele>171</ele>
        <time>2021-04-14T15:49:25Z</time>
      </trkpt>
      <trkpt lat="44.47407" lon="1.61185">
        <ele>175</ele>
        <time>2021-04-14T15:49:42Z</time>
      </trkpt>
      <trkpt lat="44.4737" lon="1.61238">
        <ele>182</ele>
        <time>2021-04-14T15:49:54Z</time>
      </trkpt>
      <trkpt lat="44.4714" lon="1.61255">
        <ele>230</ele>
        <time>2021-04-14T15:50:48Z</time>
      </trkpt>
      <trkpt lat="44.46984" lon="1.61304">
        <ele>267</ele>
        <time>2021-04-14T15:51:25Z</time>
      </trkpt>
      <trkpt lat="44.46726" lon="1.61522">
        <ele>303</ele>
        <time>2021-04-14T15:52:35Z</time>
      </trkpt>
      <trkpt lat="44.46683" lon="1.61541">
        <ele>304</ele>
        <time>2021-04-14T15:52:46Z</time>
      </trkpt>
      <trkpt lat="44.46624" lon="1.61474">
        <ele>308</ele>
        <time>2021-04-14T15:53:04Z</time>
      </trkpt>
      <trkpt lat="44.46206" lon="1.61377">
        <ele>301</ele>
        <time>2021-04-14T15:54:43Z</time>
      </trkpt>
      <trkpt lat="44.46144" lon="1.61319">
        <ele>307</ele>
        <time>2021-04-14T15:55:00Z</time>
      </trkpt>
      <trkpt lat="44.46027" lon="1.61434">
        <ele>313</ele>
        <time>2021-04-14T15:55:33Z</time>
      </trkpt>
      <trkpt lat="44.45864" lon="1.6175">
        <ele>327</ele>
        <time>2021-04-14T15:56:38Z</time>
      </trkpt>
      <trkpt lat="44.4555" lon="1.6202">
        <ele>347</ele>
        <time>2021-04-14T15:58:05Z</time>
      </trkpt>
      <trkpt lat="44.45518" lon="1.6178">
        <ele>345</ele>
        <time>2021-04-14T15:58:45Z</time>
      </trkpt>
      <trkpt lat="44.45379" lon="1.61516">
        <ele>339</ele>
        <time>2021-04-14T15:59:40Z</time>
      </trkpt>
      <trkpt lat="44.45368" lon="1.61395">
        <ele>342</ele>
        <time>2021-04-14T16:00:00Z</time>
      </trkpt>
      <trkpt lat="44.45201" lon="1.61146">
        <ele>354</ele>
        <time>2021-04-14T16:00:57Z</time>
      </trkpt>
      <trkpt lat="44.45067" lon="1.61043">
        <ele>347</ele>
        <time>2021-04-14T16:01:33Z</time>
      </trkpt>
      <trkpt lat="44.45158" lon="1.6074">
        <ele>318</ele>
        <time>2021-04-14T16:02:28Z</time>
      </trkpt>
      <trkpt lat="44.45171" lon="1.60439">
        <ele>287</ele>
        <time>2021-04-14T16:03:18Z</time>
      </trkpt>
      <trkpt lat="44.45308" lon="1.60081">
        <ele>290</ele>
        <time>2021-04-14T16:04:26Z</time>
      </trkpt>
      <trkpt lat="44.45429" lon="1.59875">
        <ele>286</ele>
        <time>2021-04-14T16:05:10Z</time>
      </trkpt>
      <trkpt lat="44.45665" lon="1.59483">
        <ele>262</ele>
        <time>2021-04-14T16:06:36Z</time>
      </trkpt>
      <trkpt lat="44.46148" lon="1.59101">
        <ele>175</ele>
        <time>2021-04-14T16:08:45Z</time>
      </trkpt>
      <trkpt lat="44.463" lon="1.59074">
        <ele>161</ele>
        <time>2021-04-14T16:09:21Z</time>
      </trkpt>
      <trkpt lat="44.46378" lon="1.59098">
        <ele>151</ele>
        <time>2021-04-14T16:09:40Z</time>
      </trkpt>
      <trkpt lat="44.46579" lon="1.58806">
        <ele>133</ele>
        <time>2021-04-14T16:10:47Z</time>
      </trkpt>
      <trkpt lat="44.46813" lon="1.58433">
        <ele>132</ele>
        <time>2021-04-14T16:12:10Z</time>
      </trkpt>
      <trkpt lat="44.46819" lon="1.58394">
        <ele>137</ele>
        <time>2021-04-14T16:12:17Z</time>
      </trkpt>
      <trkpt lat="44.47077" lon="1.58102">
        <ele>153</ele>
        <time>2021-04-14T16:13:34Z</time>
      </trkpt>
      <trkpt lat="44.4727" lon="1.57866">
        <ele>156</ele>
        <time>2021-04-14T16:14:34Z</time>
      </trkpt>
      <trkpt lat="44.47255" lon="1.57814">
        <ele>160</ele>
        <time>2021-04-14T16:14:43Z</time>
      </trkpt>
      <trkpt lat="44.47178" lon="1.57888">
        <ele>168</ele>
        <time>2021-04-14T16:15:05Z</time>
      </trkpt>
      <trkpt lat="44.47163" lon="1.57922">
        <ele>170</ele>
        <time>2021-04-14T16:15:12Z</time>
      </trkpt>
      <trkpt lat="44.47131" lon="1.57873">
        <ele>179</ele>
        <time>2021-04-14T16:15:23Z</time>
      </trkpt>
      <trkpt lat="44.47092" lon="1.57957">
        <ele>186</ele>
        <time>2021-04-14T16:15:39Z</time>
      </trkpt>
      <trkpt lat="44.47059" lon="1.57896">
        <ele>198</ele>
        <time>2021-04-14T16:15:52Z</time>
      </trkpt>
      <trkpt lat="44.4701" lon="1.57921">
        <ele>206</ele>
        <time>2021-04-14T16:16:04Z</time>
      </trkpt>
      <trkpt lat="44.46961" lon="1.579">
        <ele>217</ele>
        <time>2021-04-14T16:16:16Z</time>
      </trkpt>
      <trkpt lat="44.46843" lon="1.57874">
        <ele>238</ele>
        <time>2021-04-14T16:16:44Z</time>
      </trkpt>
      <trkpt lat="44.46784" lon="1.57748">
        <ele>262</ele>
        <time>2021-04-14T16:17:09Z</time>
      </trkpt>
      <trkpt lat="44.46616" lon="1.57636">
        <ele>286</ele>
        <time>2021-04-14T16:17:53Z</time>
      </trkpt>
      <trkpt lat="44.46397" lon="1.57423">
        <ele>279</ele>
        <time>2021-04-14T16:18:55Z</time>
      </trkpt>
      <trkpt lat="44.46101" lon="1.56954">
        <ele>274</ele>
        <time>2021-04-14T16:20:39Z</time>
      </trkpt>
      <trkpt lat="44.46217" lon="1.56633">
        <ele>291</ele>
        <time>2021-04-14T16:21:39Z</time>
      </trkpt>
      <trkpt lat="44.46204" lon="1.5659">
        <ele>292</ele>
        <time>2021-04-14T16:21:47Z</time>
      </trkpt>
      <trkpt lat="44.46462" lon="1.56305">
        <ele>302</ele>
        <time>2021-04-14T16:23:04Z</time>
      </trkpt>
      <trkpt lat="44.46601" lon="1.56204">
        <ele>305</ele>
        <time>2021-04-14T16:23:40Z</time>
      </trkpt>
      <trkpt lat="44.46688" lon="1.5607">
        <ele>293</ele>
        <time>2021-04-14T16:24:11Z</time>
      </trkpt>
      <trkpt lat="44.47165" lon="1.55785">
        <ele>254</ele>
        <time>2021-04-14T16:26:12Z</time>
      </trkpt>
      <trkpt lat="44.4734" lon="1.55763">
        <ele>245</ele>
        <time>2021-04-14T16:26:53Z</time>
      </trkpt>
      <trkpt lat="44.47358" lon="1.55713">
        <ele>247</ele>
        <time>2021-04-14T16:27:02Z</time>
      </trkpt>
      <trkpt lat="44.47343" lon="1.55601">
        <ele>244</ele>
        <time>2021-04-14T16:27:21Z</time>
      </trkpt>
      <trkpt lat="44.47448" lon="1.55489">
        <ele>208</ele>
        <time>2021-04-14T16:27:52Z</time>
      </trkpt>
      <trkpt lat="44.47556" lon="1.55713">
        <ele>192</ele>
        <time>2021-04-14T16:28:37Z</time>
      </trkpt>
      <trkpt lat="44.47564" lon="1.55633">
        <ele>187</ele>
        <time>2021-04-14T16:28:50Z</time>
      </trkpt>
      <trkpt lat="44.47698" lon="1.55835">
        <ele>150</ele>
        <time>2021-04-14T16:29:36Z</time>
      </trkpt>
      <trkpt lat="44.47747" lon="1.55821">
        <ele>148</ele>
        <time>2021-04-14T16:29:48Z</time>
      </trkpt>
      <trkpt lat="44.47749" lon="1.55688">
        <ele>151</ele>
        <time>2021-04-14T16:30:10Z</time>
      </trkpt>
      <trkpt lat="44.47909" lon="1.55608">
        <ele>152</ele>
        <time>2021-04-14T16:30:50Z</time>
      </trkpt>
      <trkpt lat="44.48051" lon="1.55446">
        <ele>134</ele>
        <time>2021-04-14T16:31:33Z</time>
      </trkpt>
      <trkpt lat="44.48133" lon="1.55536">
        <ele>141</ele>
        <time>2021-04-14T16:31:57Z</time>
      </trkpt>
      <trkpt lat="44.48322" lon="1.55179">
        <ele>133</ele>
        <time>2021-04-14T16:33:11Z</time>
      </trkpt>
      <trkpt lat="44.48217" lon="1.55138">
        <ele>138</ele>
        <time>2021-04-14T16:33:37Z</time>
      </trkpt>
      <trkpt lat="44.48024" lon="1.55081">
        <ele>132</ele>
        <time>2021-04-14T16:34:23Z</time>
      </trkpt>
      <trkpt lat="44.47851" lon="1.55041">
        <ele>127</ele>
        <time>2021-04-14T16:35:04Z</time>
      </trkpt>
      <trkpt lat="44.47781" lon="1.5491">
        <ele>129</ele>
        <time>2021-04-14T16:35:31Z</time>
      </trkpt>
      <trkpt lat="44.47745" lon="1.54828">
        <ele>134</ele>
        <time>2021-04-14T16:35:47Z</time>
      </trkpt>
      <trkpt lat="44.47569" lon="1.54731">
        <ele>146</ele>
        <time>2021-04-14T16:36:31Z</time>
      </trkpt>
      <trkpt lat="44.47361" lon="1.54789">
        <ele>145</ele>
        <time>2021-04-14T16:37:21Z</time>
      </trkpt>
      <trkpt lat="44.47021" lon="1.54868">
        <ele>142</ele>
        <time>2021-04-14T16:38:41Z</time>
      </trkpt>
      <trkpt lat="44.46816" lon="1.54599">
        <ele>138</ele>
        <time>2021-04-14T16:39:47Z</time>
      </trkpt>
      <trkpt lat="44.47223" lon="1.54569">
        <ele>184</ele>
        <time>2021-04-14T16:41:22Z</time>
      </trkpt>
      <trkpt lat="44.47271" lon="1.54619">
        <ele>183</ele>
        <time>2021-04-14T16:41:36Z</time>
      </trkpt>
      <trkpt lat="44.4734" lon="1.54575">
        <ele>193</ele>
        <time>2021-04-14T16:41:53Z</time>
      </trkpt>
      <trkpt lat="44.47339" lon="1.54471">
        <ele>201</ele>
        <time>2021-04-14T16:42:11Z</time>
      </trkpt>
      <trkpt lat="44.4764" lon="1.5417">
        <ele>244</ele>
        <time>2021-04-14T16:43:37Z</time>
      </trkpt>
    </trkseg>
  </trk>
</gpx>